sensor_id;sensor_type;location;lat;lon;timestamp;P1;durP1;ratioP1;P2;durP2;ratioP2
34060;SDS011;20336;-33.424;-70.638;2023-07-08T00:00:11;25.90;;;15.90;;
34060;SDS011;20336;-33.424;-70.638;2023-07-08T00:02:40;32.27;;;16.10;;
34060;SDS011;20336;-33.424;-70.638;2023-07-08T00:05:11;31.40;;;16.10;;
34060;SDS011;20336;-33.424;-70.638;2023-07-08T00:07:38;29.13;;;17.03;;
34060;SDS011;20336;-33.424;-70.638;2023-07-08T00:10:10;29.47;;;16.63;;
34060;SDS011;20336;-33.424;-70.638;2023-07-08T00:12:38;33.33;;;17.27;;
34060;SDS011;20336;-33.424;-70.638;2023-07-08T00:15:05;33.30;;;17.50;;
34060;SDS011;20336;-33.424;-70.638;2023-07-08T00:17:32;32.93;;;17.57;;
34060;SDS011;20336;-33.424;-70.638;2023-07-08T00:19:59;31.93;;;17.73;;
34060;SDS011;20336;-33.424;-70.638;2023-07-08T00:22:26;28.17;;;17.57;;
34060;SDS011;20336;-33.424;-70.638;2023-07-08T00:24:53;33.13;;;19.00;;
34060;SDS011;20336;-33.424;-70.638;2023-07-08T00:27:20;32.27;;;18.80;;
34060;SDS011;20336;-33.424;-70.638;2023-07-08T00:29:47;30.40;;;17.87;;
34060;SDS011;20336;-33.424;-70.638;2023-07-08T00:32:14;34.27;;;19.33;;
34060;SDS011;20336;-33.424;-70.638;2023-07-08T00:34:41;36.70;;;21.00;;
34060;SDS011;20336;-33.424;-70.638;2023-07-08T00:37:11;33.90;;;18.80;;
34060;SDS011;20336;-33.424;-70.638;2023-07-08T00:39:39;33.13;;;19.60;;
34060;SDS011;20336;-33.424;-70.638;2023-07-08T00:42:13;34.53;;;19.30;;
34060;SDS011;20336;-33.424;-70.638;2023-07-08T00:44:42;28.77;;;18.67;;
34060;SDS011;20336;-33.424;-70.638;2023-07-08T00:47:10;36.70;;;19.23;;
34060;SDS011;20336;-33.424;-70.638;2023-07-08T00:52:17;36.90;;;19.93;;
34060;SDS011;20336;-33.424;-70.638;2023-07-08T00:54:45;33.30;;;19.73;;
34060;SDS011;20336;-33.424;-70.638;2023-07-08T00:57:12;32.97;;;19.80;;
34060;SDS011;20336;-33.424;-70.638;2023-07-08T00:59:42;39.63;;;20.47;;
34060;SDS011;20336;-33.424;-70.638;2023-07-08T01:02:12;36.40;;;19.87;;
34060;SDS011;20336;-33.424;-70.638;2023-07-08T01:04:43;32.53;;;20.33;;
34060;SDS011;20336;-33.424;-70.638;2023-07-08T01:07:12;40.67;;;22.00;;
34060;SDS011;20336;-33.424;-70.638;2023-07-08T01:09:44;34.80;;;20.50;;
34060;SDS011;20336;-33.424;-70.638;2023-07-08T01:12:14;39.03;;;21.80;;
34060;SDS011;20336;-33.424;-70.638;2023-07-08T01:14:41;44.00;;;22.23;;
34060;SDS011;20336;-33.424;-70.638;2023-07-08T01:17:09;37.23;;;21.70;;
34060;SDS011;20336;-33.424;-70.638;2023-07-08T01:19:40;46.17;;;22.80;;
34060;SDS011;20336;-33.424;-70.638;2023-07-08T01:22:07;41.50;;;24.33;;
34060;SDS011;20336;-33.424;-70.638;2023-07-08T01:24:35;47.63;;;26.13;;
34060;SDS011;20336;-33.424;-70.638;2023-07-08T01:27:04;47.83;;;26.07;;
34060;SDS011;20336;-33.424;-70.638;2023-07-08T01:29:32;45.27;;;24.80;;
34060;SDS011;20336;-33.424;-70.638;2023-07-08T01:31:59;46.80;;;24.87;;
34060;SDS011;20336;-33.424;-70.638;2023-07-08T01:34:28;47.17;;;26.47;;
34060;SDS011;20336;-33.424;-70.638;2023-07-08T01:36:55;47.10;;;26.50;;
34060;SDS011;20336;-33.424;-70.638;2023-07-08T01:39:24;46.90;;;25.70;;
34060;SDS011;20336;-33.424;-70.638;2023-07-08T01:41:51;47.93;;;26.13;;
34060;SDS011;20336;-33.424;-70.638;2023-07-08T01:44:22;43.47;;;23.03;;
34060;SDS011;20336;-33.424;-70.638;2023-07-08T01:46:50;39.07;;;23.63;;
34060;SDS011;20336;-33.424;-70.638;2023-07-08T01:49:17;43.30;;;24.60;;
34060;SDS011;20336;-33.424;-70.638;2023-07-08T01:51:45;41.70;;;24.53;;
34060;SDS011;20336;-33.424;-70.638;2023-07-08T01:54:12;38.77;;;23.87;;
34060;SDS011;20336;-33.424;-70.638;2023-07-08T01:56:39;39.10;;;22.83;;
34060;SDS011;20336;-33.424;-70.638;2023-07-08T01:59:06;46.30;;;24.20;;
34060;SDS011;20336;-33.424;-70.638;2023-07-08T02:01:33;44.97;;;22.60;;
34060;SDS011;20336;-33.424;-70.638;2023-07-08T02:04:00;40.80;;;20.27;;
34060;SDS011;20336;-33.424;-70.638;2023-07-08T02:06:27;42.90;;;21.47;;
34060;SDS011;20336;-33.424;-70.638;2023-07-08T02:08:54;37.03;;;19.83;;
34060;SDS011;20336;-33.424;-70.638;2023-07-08T02:11:24;40.27;;;20.13;;
34060;SDS011;20336;-33.424;-70.638;2023-07-08T02:13:51;33.97;;;18.77;;
34060;SDS011;20336;-33.424;-70.638;2023-07-08T02:16:18;41.87;;;20.00;;
34060;SDS011;20336;-33.424;-70.638;2023-07-08T02:18:45;35.40;;;19.53;;
34060;SDS011;20336;-33.424;-70.638;2023-07-08T02:21:11;32.13;;;20.40;;
34060;SDS011;20336;-33.424;-70.638;2023-07-08T02:23:39;34.20;;;19.33;;
34060;SDS011;20336;-33.424;-70.638;2023-07-08T02:26:05;33.80;;;20.33;;
34060;SDS011;20336;-33.424;-70.638;2023-07-08T02:28:32;39.07;;;19.53;;
34060;SDS011;20336;-33.424;-70.638;2023-07-08T02:31:02;38.37;;;21.03;;
34060;SDS011;20336;-33.424;-70.638;2023-07-08T02:33:29;34.57;;;18.60;;
34060;SDS011;20336;-33.424;-70.638;2023-07-08T02:35:58;33.90;;;19.73;;
34060;SDS011;20336;-33.424;-70.638;2023-07-08T02:38:28;39.77;;;20.03;;
34060;SDS011;20336;-33.424;-70.638;2023-07-08T02:40:55;40.60;;;22.63;;
34060;SDS011;20336;-33.424;-70.638;2023-07-08T02:43:22;39.13;;;20.27;;
34060;SDS011;20336;-33.424;-70.638;2023-07-08T02:45:49;38.80;;;21.87;;
34060;SDS011;20336;-33.424;-70.638;2023-07-08T02:48:19;36.20;;;21.40;;
34060;SDS011;20336;-33.424;-70.638;2023-07-08T02:50:46;41.47;;;22.47;;
34060;SDS011;20336;-33.424;-70.638;2023-07-08T02:53:13;44.57;;;23.70;;
34060;SDS011;20336;-33.424;-70.638;2023-07-08T02:55:39;41.57;;;23.10;;
34060;SDS011;20336;-33.424;-70.638;2023-07-08T02:58:08;42.07;;;23.60;;
34060;SDS011;20336;-33.424;-70.638;2023-07-08T03:00:35;47.33;;;25.90;;
34060;SDS011;20336;-33.424;-70.638;2023-07-08T03:03:03;42.70;;;25.17;;
34060;SDS011;20336;-33.424;-70.638;2023-07-08T03:05:30;46.63;;;25.10;;
34060;SDS011;20336;-33.424;-70.638;2023-07-08T03:07:57;50.83;;;26.20;;
34060;SDS011;20336;-33.424;-70.638;2023-07-08T03:10:24;44.53;;;23.57;;
34060;SDS011;20336;-33.424;-70.638;2023-07-08T03:12:51;45.40;;;23.40;;
34060;SDS011;20336;-33.424;-70.638;2023-07-08T03:15:17;44.00;;;24.63;;
34060;SDS011;20336;-33.424;-70.638;2023-07-08T03:17:44;44.63;;;24.13;;
34060;SDS011;20336;-33.424;-70.638;2023-07-08T03:20:12;42.27;;;23.67;;
34060;SDS011;20336;-33.424;-70.638;2023-07-08T03:22:39;47.97;;;24.93;;
34060;SDS011;20336;-33.424;-70.638;2023-07-08T03:25:06;42.00;;;23.20;;
34060;SDS011;20336;-33.424;-70.638;2023-07-08T03:27:34;40.53;;;22.90;;
34060;SDS011;20336;-33.424;-70.638;2023-07-08T03:30:01;41.30;;;22.83;;
34060;SDS011;20336;-33.424;-70.638;2023-07-08T03:32:30;38.97;;;22.33;;
34060;SDS011;20336;-33.424;-70.638;2023-07-08T03:34:57;39.30;;;22.47;;
34060;SDS011;20336;-33.424;-70.638;2023-07-08T03:37:24;40.30;;;21.80;;
34060;SDS011;20336;-33.424;-70.638;2023-07-08T03:39:51;40.70;;;21.47;;
34060;SDS011;20336;-33.424;-70.638;2023-07-08T03:42:18;44.50;;;21.70;;
34060;SDS011;20336;-33.424;-70.638;2023-07-08T03:44:44;44.77;;;23.57;;
34060;SDS011;20336;-33.424;-70.638;2023-07-08T03:47:11;46.60;;;24.70;;
34060;SDS011;20336;-33.424;-70.638;2023-07-08T03:49:38;49.53;;;24.57;;
34060;SDS011;20336;-33.424;-70.638;2023-07-08T03:52:07;48.27;;;24.90;;
34060;SDS011;20336;-33.424;-70.638;2023-07-08T03:54:39;48.77;;;25.37;;
34060;SDS011;20336;-33.424;-70.638;2023-07-08T03:57:05;53.50;;;26.10;;
34060;SDS011;20336;-33.424;-70.638;2023-07-08T03:59:32;49.60;;;24.17;;
34060;SDS011;20336;-33.424;-70.638;2023-07-08T04:01:59;46.53;;;23.97;;
34060;SDS011;20336;-33.424;-70.638;2023-07-08T04:04:26;50.63;;;25.53;;
34060;SDS011;20336;-33.424;-70.638;2023-07-08T04:06:53;55.47;;;27.27;;
34060;SDS011;20336;-33.424;-70.638;2023-07-08T04:09:20;53.73;;;23.47;;
34060;SDS011;20336;-33.424;-70.638;2023-07-08T04:11:47;43.03;;;23.83;;
34060;SDS011;20336;-33.424;-70.638;2023-07-08T04:14:14;45.60;;;23.40;;
34060;SDS011;20336;-33.424;-70.638;2023-07-08T04:16:45;43.73;;;23.20;;
34060;SDS011;20336;-33.424;-70.638;2023-07-08T04:19:13;44.97;;;23.80;;
34060;SDS011;20336;-33.424;-70.638;2023-07-08T04:21:41;45.70;;;23.00;;
34060;SDS011;20336;-33.424;-70.638;2023-07-08T04:24:12;51.90;;;25.70;;
34060;SDS011;20336;-33.424;-70.638;2023-07-08T04:26:39;49.87;;;25.27;;
34060;SDS011;20336;-33.424;-70.638;2023-07-08T04:29:13;42.60;;;25.17;;
34060;SDS011;20336;-33.424;-70.638;2023-07-08T04:31:40;47.87;;;26.03;;
34060;SDS011;20336;-33.424;-70.638;2023-07-08T04:34:07;44.93;;;25.37;;
34060;SDS011;20336;-33.424;-70.638;2023-07-08T04:36:34;46.77;;;24.93;;
34060;SDS011;20336;-33.424;-70.638;2023-07-08T04:39:05;51.17;;;25.73;;
34060;SDS011;20336;-33.424;-70.638;2023-07-08T04:41:32;49.03;;;25.83;;
34060;SDS011;20336;-33.424;-70.638;2023-07-08T04:43:59;51.37;;;26.43;;
34060;SDS011;20336;-33.424;-70.638;2023-07-08T04:46:45;47.97;;;26.87;;
34060;SDS011;20336;-33.424;-70.638;2023-07-08T04:49:13;45.53;;;26.43;;
34060;SDS011;20336;-33.424;-70.638;2023-07-08T04:51:40;50.07;;;27.13;;
34060;SDS011;20336;-33.424;-70.638;2023-07-08T04:54:07;45.30;;;26.37;;
34060;SDS011;20336;-33.424;-70.638;2023-07-08T04:56:36;60.80;;;30.93;;
34060;SDS011;20336;-33.424;-70.638;2023-07-08T04:59:03;51.07;;;28.00;;
34060;SDS011;20336;-33.424;-70.638;2023-07-08T05:01:30;52.73;;;29.30;;
34060;SDS011;20336;-33.424;-70.638;2023-07-08T05:03:57;54.70;;;30.53;;
34060;SDS011;20336;-33.424;-70.638;2023-07-08T05:06:24;54.37;;;29.93;;
34060;SDS011;20336;-33.424;-70.638;2023-07-08T05:08:52;59.37;;;30.63;;
34060;SDS011;20336;-33.424;-70.638;2023-07-08T05:11:18;65.17;;;35.53;;
34060;SDS011;20336;-33.424;-70.638;2023-07-08T05:13:46;58.33;;;31.90;;
34060;SDS011;20336;-33.424;-70.638;2023-07-08T05:16:13;58.07;;;31.13;;
34060;SDS011;20336;-33.424;-70.638;2023-07-08T05:18:43;57.93;;;30.17;;
34060;SDS011;20336;-33.424;-70.638;2023-07-08T05:21:10;56.40;;;30.93;;
34060;SDS011;20336;-33.424;-70.638;2023-07-08T05:23:37;54.87;;;29.67;;
34060;SDS011;20336;-33.424;-70.638;2023-07-08T05:26:04;58.90;;;30.50;;
34060;SDS011;20336;-33.424;-70.638;2023-07-08T05:28:32;58.23;;;30.43;;
34060;SDS011;20336;-33.424;-70.638;2023-07-08T05:30:59;51.17;;;27.97;;
34060;SDS011;20336;-33.424;-70.638;2023-07-08T05:33:27;48.63;;;27.30;;
34060;SDS011;20336;-33.424;-70.638;2023-07-08T05:35:54;49.80;;;26.37;;
34060;SDS011;20336;-33.424;-70.638;2023-07-08T05:38:21;45.97;;;25.83;;
34060;SDS011;20336;-33.424;-70.638;2023-07-08T05:40:53;48.00;;;27.27;;
34060;SDS011;20336;-33.424;-70.638;2023-07-08T05:43:20;51.83;;;27.40;;
34060;SDS011;20336;-33.424;-70.638;2023-07-08T05:45:47;49.10;;;26.93;;
34060;SDS011;20336;-33.424;-70.638;2023-07-08T05:48:14;56.87;;;27.63;;
34060;SDS011;20336;-33.424;-70.638;2023-07-08T05:50:41;49.30;;;27.30;;
34060;SDS011;20336;-33.424;-70.638;2023-07-08T05:53:11;55.53;;;27.93;;
34060;SDS011;20336;-33.424;-70.638;2023-07-08T05:55:39;55.50;;;28.60;;
34060;SDS011;20336;-33.424;-70.638;2023-07-08T05:58:07;66.53;;;33.07;;
34060;SDS011;20336;-33.424;-70.638;2023-07-08T06:00:35;54.03;;;29.97;;
34060;SDS011;20336;-33.424;-70.638;2023-07-08T06:03:02;66.93;;;30.33;;
34060;SDS011;20336;-33.424;-70.638;2023-07-08T06:05:29;49.40;;;28.83;;
34060;SDS011;20336;-33.424;-70.638;2023-07-08T06:07:58;50.23;;;28.37;;
34060;SDS011;20336;-33.424;-70.638;2023-07-08T06:10:25;66.53;;;32.53;;
34060;SDS011;20336;-33.424;-70.638;2023-07-08T06:12:52;60.03;;;29.77;;
34060;SDS011;20336;-33.424;-70.638;2023-07-08T06:15:19;51.80;;;27.77;;
34060;SDS011;20336;-33.424;-70.638;2023-07-08T06:17:46;50.83;;;27.50;;
34060;SDS011;20336;-33.424;-70.638;2023-07-08T06:20:13;53.83;;;27.33;;
34060;SDS011;20336;-33.424;-70.638;2023-07-08T06:22:40;60.27;;;30.27;;
34060;SDS011;20336;-33.424;-70.638;2023-07-08T06:25:06;61.93;;;31.90;;
34060;SDS011;20336;-33.424;-70.638;2023-07-08T06:27:33;58.93;;;32.63;;
34060;SDS011;20336;-33.424;-70.638;2023-07-08T06:30:00;63.57;;;34.67;;
34060;SDS011;20336;-33.424;-70.638;2023-07-08T06:32:27;62.93;;;33.87;;
34060;SDS011;20336;-33.424;-70.638;2023-07-08T06:34:54;62.17;;;35.47;;
34060;SDS011;20336;-33.424;-70.638;2023-07-08T06:37:21;68.60;;;37.50;;
34060;SDS011;20336;-33.424;-70.638;2023-07-08T06:39:48;68.83;;;38.40;;
34060;SDS011;20336;-33.424;-70.638;2023-07-08T06:42:14;66.53;;;35.03;;
34060;SDS011;20336;-33.424;-70.638;2023-07-08T06:44:41;68.53;;;37.37;;
34060;SDS011;20336;-33.424;-70.638;2023-07-08T06:47:16;72.47;;;38.30;;
34060;SDS011;20336;-33.424;-70.638;2023-07-08T06:49:43;68.87;;;37.20;;
34060;SDS011;20336;-33.424;-70.638;2023-07-08T06:52:10;63.37;;;38.33;;
34060;SDS011;20336;-33.424;-70.638;2023-07-08T06:54:37;67.33;;;36.87;;
34060;SDS011;20336;-33.424;-70.638;2023-07-08T06:57:04;76.20;;;40.10;;
34060;SDS011;20336;-33.424;-70.638;2023-07-08T06:59:31;65.90;;;37.57;;
34060;SDS011;20336;-33.424;-70.638;2023-07-08T07:01:58;78.87;;;42.33;;
34060;SDS011;20336;-33.424;-70.638;2023-07-08T07:04:25;76.03;;;40.13;;
34060;SDS011;20336;-33.424;-70.638;2023-07-08T07:06:52;70.27;;;40.23;;
34060;SDS011;20336;-33.424;-70.638;2023-07-08T07:09:19;78.67;;;41.77;;
34060;SDS011;20336;-33.424;-70.638;2023-07-08T07:11:45;71.23;;;39.80;;
34060;SDS011;20336;-33.424;-70.638;2023-07-08T07:14:12;89.30;;;45.77;;
34060;SDS011;20336;-33.424;-70.638;2023-07-08T07:16:39;69.10;;;41.43;;
34060;SDS011;20336;-33.424;-70.638;2023-07-08T07:19:07;65.10;;;37.20;;
34060;SDS011;20336;-33.424;-70.638;2023-07-08T07:21:34;71.23;;;37.37;;
34060;SDS011;20336;-33.424;-70.638;2023-07-08T07:24:01;64.70;;;37.40;;
34060;SDS011;20336;-33.424;-70.638;2023-07-08T07:26:28;69.40;;;38.30;;
34060;SDS011;20336;-33.424;-70.638;2023-07-08T07:28:56;67.70;;;39.10;;
34060;SDS011;20336;-33.424;-70.638;2023-07-08T07:31:22;66.93;;;37.53;;
34060;SDS011;20336;-33.424;-70.638;2023-07-08T07:33:49;69.07;;;38.90;;
34060;SDS011;20336;-33.424;-70.638;2023-07-08T07:36:16;66.33;;;37.20;;
34060;SDS011;20336;-33.424;-70.638;2023-07-08T07:38:43;65.13;;;37.27;;
34060;SDS011;20336;-33.424;-70.638;2023-07-08T07:41:10;64.17;;;36.43;;
34060;SDS011;20336;-33.424;-70.638;2023-07-08T07:43:38;65.40;;;36.43;;
34060;SDS011;20336;-33.424;-70.638;2023-07-08T07:46:05;60.33;;;34.30;;
34060;SDS011;20336;-33.424;-70.638;2023-07-08T07:48:33;63.17;;;35.30;;
34060;SDS011;20336;-33.424;-70.638;2023-07-08T07:51:00;62.60;;;33.50;;
34060;SDS011;20336;-33.424;-70.638;2023-07-08T07:53:27;69.90;;;37.87;;
34060;SDS011;20336;-33.424;-70.638;2023-07-08T07:55:58;64.13;;;36.80;;
34060;SDS011;20336;-33.424;-70.638;2023-07-08T07:58:25;66.67;;;33.67;;
34060;SDS011;20336;-33.424;-70.638;2023-07-08T08:00:52;81.83;;;40.57;;
34060;SDS011;20336;-33.424;-70.638;2023-07-08T08:03:19;67.57;;;36.60;;
34060;SDS011;20336;-33.424;-70.638;2023-07-08T08:05:46;61.63;;;31.63;;
34060;SDS011;20336;-33.424;-70.638;2023-07-08T08:08:14;60.57;;;32.60;;
34060;SDS011;20336;-33.424;-70.638;2023-07-08T08:10:42;56.97;;;31.83;;
34060;SDS011;20336;-33.424;-70.638;2023-07-08T08:13:09;63.27;;;32.90;;
34060;SDS011;20336;-33.424;-70.638;2023-07-08T08:15:37;58.73;;;31.43;;
34060;SDS011;20336;-33.424;-70.638;2023-07-08T08:18:03;64.63;;;33.33;;
34060;SDS011;20336;-33.424;-70.638;2023-07-08T08:20:30;59.70;;;33.50;;
34060;SDS011;20336;-33.424;-70.638;2023-07-08T08:22:57;60.20;;;32.70;;
34060;SDS011;20336;-33.424;-70.638;2023-07-08T08:25:24;58.67;;;33.10;;
34060;SDS011;20336;-33.424;-70.638;2023-07-08T08:27:51;65.03;;;33.13;;
34060;SDS011;20336;-33.424;-70.638;2023-07-08T08:30:18;59.43;;;32.17;;
34060;SDS011;20336;-33.424;-70.638;2023-07-08T08:32:45;54.80;;;31.07;;
34060;SDS011;20336;-33.424;-70.638;2023-07-08T08:35:12;66.80;;;32.87;;
34060;SDS011;20336;-33.424;-70.638;2023-07-08T08:37:39;56.70;;;32.30;;
34060;SDS011;20336;-33.424;-70.638;2023-07-08T08:40:07;62.90;;;34.17;;
34060;SDS011;20336;-33.424;-70.638;2023-07-08T08:42:41;57.27;;;32.47;;
34060;SDS011;20336;-33.424;-70.638;2023-07-08T08:45:11;60.70;;;33.80;;
34060;SDS011;20336;-33.424;-70.638;2023-07-08T08:47:41;59.20;;;33.07;;
34060;SDS011;20336;-33.424;-70.638;2023-07-08T08:52:36;51.50;;;31.10;;
34060;SDS011;20336;-33.424;-70.638;2023-07-08T08:55:08;56.60;;;31.07;;
34060;SDS011;20336;-33.424;-70.638;2023-07-08T08:57:40;59.67;;;30.40;;
34060;SDS011;20336;-33.424;-70.638;2023-07-08T09:00:09;56.90;;;30.73;;
34060;SDS011;20336;-33.424;-70.638;2023-07-08T09:03:01;53.70;;;30.27;;
34060;SDS011;20336;-33.424;-70.638;2023-07-08T09:05:26;54.03;;;30.30;;
34060;SDS011;20336;-33.424;-70.638;2023-07-08T09:08:13;54.27;;;30.97;;
34060;SDS011;20336;-33.424;-70.638;2023-07-08T09:10:45;58.63;;;32.07;;
34060;SDS011;20336;-33.424;-70.638;2023-07-08T09:13:24;60.20;;;31.47;;
34060;SDS011;20336;-33.424;-70.638;2023-07-08T09:15:54;58.57;;;32.07;;
34060;SDS011;20336;-33.424;-70.638;2023-07-08T09:18:32;60.57;;;33.17;;
34060;SDS011;20336;-33.424;-70.638;2023-07-08T09:21:00;57.93;;;31.70;;
34060;SDS011;20336;-33.424;-70.638;2023-07-08T09:23:30;54.10;;;29.33;;
34060;SDS011;20336;-33.424;-70.638;2023-07-08T09:26:13;54.90;;;31.30;;
34060;SDS011;20336;-33.424;-70.638;2023-07-08T09:28:42;58.03;;;33.20;;
34060;SDS011;20336;-33.424;-70.638;2023-07-08T09:31:14;56.17;;;31.03;;
34060;SDS011;20336;-33.424;-70.638;2023-07-08T09:33:45;63.33;;;33.60;;
34060;SDS011;20336;-33.424;-70.638;2023-07-08T09:36:17;70.93;;;37.63;;
34060;SDS011;20336;-33.424;-70.638;2023-07-08T09:38:47;58.33;;;33.97;;
34060;SDS011;20336;-33.424;-70.638;2023-07-08T09:41:18;68.30;;;35.33;;
34060;SDS011;20336;-33.424;-70.638;2023-07-08T09:44:02;64.07;;;35.63;;
34060;SDS011;20336;-33.424;-70.638;2023-07-08T09:46:30;63.83;;;36.17;;
34060;SDS011;20336;-33.424;-70.638;2023-07-08T09:49:08;65.30;;;35.83;;
34060;SDS011;20336;-33.424;-70.638;2023-07-08T09:51:37;69.43;;;36.40;;
34060;SDS011;20336;-33.424;-70.638;2023-07-08T09:54:04;58.03;;;33.80;;
34060;SDS011;20336;-33.424;-70.638;2023-07-08T09:56:30;57.90;;;33.67;;
34060;SDS011;20336;-33.424;-70.638;2023-07-08T09:58:57;55.43;;;31.97;;
34060;SDS011;20336;-33.424;-70.638;2023-07-08T10:01:25;66.97;;;33.27;;
34060;SDS011;20336;-33.424;-70.638;2023-07-08T10:03:58;59.67;;;32.30;;
34060;SDS011;20336;-33.424;-70.638;2023-07-08T10:06:26;56.43;;;29.70;;
34060;SDS011;20336;-33.424;-70.638;2023-07-08T10:08:54;67.90;;;32.67;;
34060;SDS011;20336;-33.424;-70.638;2023-07-08T10:11:32;49.00;;;27.70;;
34060;SDS011;20336;-33.424;-70.638;2023-07-08T10:14:01;51.67;;;29.30;;
34060;SDS011;20336;-33.424;-70.638;2023-07-08T10:16:31;81.53;;;32.57;;
34060;SDS011;20336;-33.424;-70.638;2023-07-08T10:18:59;55.40;;;28.10;;
34060;SDS011;20336;-33.424;-70.638;2023-07-08T10:21:48;41.77;;;24.53;;
34060;SDS011;20336;-33.424;-70.638;2023-07-08T10:24:26;40.67;;;23.93;;
34060;SDS011;20336;-33.424;-70.638;2023-07-08T10:26:57;38.90;;;23.60;;
34060;SDS011;20336;-33.424;-70.638;2023-07-08T10:29:32;52.87;;;27.83;;
34060;SDS011;20336;-33.424;-70.638;2023-07-08T10:34:49;44.83;;;24.27;;
34060;SDS011;20336;-33.424;-70.638;2023-07-08T10:37:22;50.03;;;26.77;;
34060;SDS011;20336;-33.424;-70.638;2023-07-08T10:40:10;48.37;;;25.37;;
34060;SDS011;20336;-33.424;-70.638;2023-07-08T10:42:43;53.57;;;27.90;;
34060;SDS011;20336;-33.424;-70.638;2023-07-08T10:55:51;45.97;;;24.00;;
34060;SDS011;20336;-33.424;-70.638;2023-07-08T10:58:25;44.30;;;23.87;;
34060;SDS011;20336;-33.424;-70.638;2023-07-08T11:05:56;42.83;;;24.17;;
34060;SDS011;20336;-33.424;-70.638;2023-07-08T11:08:32;43.03;;;23.93;;
34060;SDS011;20336;-33.424;-70.638;2023-07-08T11:11:06;47.47;;;24.77;;
34060;SDS011;20336;-33.424;-70.638;2023-07-08T11:13:36;44.80;;;25.27;;
34060;SDS011;20336;-33.424;-70.638;2023-07-08T11:16:13;51.60;;;27.90;;
34060;SDS011;20336;-33.424;-70.638;2023-07-08T11:18:53;51.37;;;26.90;;
34060;SDS011;20336;-33.424;-70.638;2023-07-08T11:26:26;46.30;;;25.20;;
34060;SDS011;20336;-33.424;-70.638;2023-07-08T11:28:56;41.97;;;24.43;;
34060;SDS011;20336;-33.424;-70.638;2023-07-08T11:31:24;51.97;;;27.17;;
34060;SDS011;20336;-33.424;-70.638;2023-07-08T11:33:52;41.13;;;23.27;;
34060;SDS011;20336;-33.424;-70.638;2023-07-08T11:36:20;39.07;;;22.80;;
34060;SDS011;20336;-33.424;-70.638;2023-07-08T11:38:49;49.67;;;25.80;;
34060;SDS011;20336;-33.424;-70.638;2023-07-08T11:41:17;45.57;;;24.00;;
34060;SDS011;20336;-33.424;-70.638;2023-07-08T11:43:47;42.30;;;23.30;;
34060;SDS011;20336;-33.424;-70.638;2023-07-08T11:46:18;39.10;;;21.80;;
34060;SDS011;20336;-33.424;-70.638;2023-07-08T11:48:47;42.57;;;23.20;;
34060;SDS011;20336;-33.424;-70.638;2023-07-08T11:51:24;37.83;;;20.60;;
34060;SDS011;20336;-33.424;-70.638;2023-07-08T11:54:34;45.13;;;22.07;;
34060;SDS011;20336;-33.424;-70.638;2023-07-08T11:56:59;36.13;;;21.10;;
34060;SDS011;20336;-33.424;-70.638;2023-07-08T11:59:36;33.83;;;18.93;;
34060;SDS011;20336;-33.424;-70.638;2023-07-08T12:02:04;37.80;;;19.53;;
34060;SDS011;20336;-33.424;-70.638;2023-07-08T12:04:51;43.70;;;22.00;;
34060;SDS011;20336;-33.424;-70.638;2023-07-08T12:07:21;41.97;;;23.47;;
34060;SDS011;20336;-33.424;-70.638;2023-07-08T12:09:59;41.23;;;23.87;;
34060;SDS011;20336;-33.424;-70.638;2023-07-08T12:12:30;52.07;;;27.47;;
34060;SDS011;20336;-33.424;-70.638;2023-07-08T12:15:09;39.50;;;23.73;;
34060;SDS011;20336;-33.424;-70.638;2023-07-08T12:17:41;46.73;;;25.23;;
34060;SDS011;20336;-33.424;-70.638;2023-07-08T12:20:19;43.17;;;23.90;;
34060;SDS011;20336;-33.424;-70.638;2023-07-08T12:22:47;44.53;;;24.30;;
34060;SDS011;20336;-33.424;-70.638;2023-07-08T12:25:15;41.33;;;23.87;;
34060;SDS011;20336;-33.424;-70.638;2023-07-08T12:27:43;41.10;;;23.63;;
34060;SDS011;20336;-33.424;-70.638;2023-07-08T12:30:10;38.70;;;22.70;;
34060;SDS011;20336;-33.424;-70.638;2023-07-08T12:32:37;51.97;;;27.47;;
34060;SDS011;20336;-33.424;-70.638;2023-07-08T12:35:05;44.70;;;25.63;;
34060;SDS011;20336;-33.424;-70.638;2023-07-08T12:37:35;44.30;;;25.10;;
34060;SDS011;20336;-33.424;-70.638;2023-07-08T12:40:03;45.03;;;24.87;;
34060;SDS011;20336;-33.424;-70.638;2023-07-08T12:42:31;41.87;;;24.23;;
34060;SDS011;20336;-33.424;-70.638;2023-07-08T12:44:58;42.40;;;24.00;;
34060;SDS011;20336;-33.424;-70.638;2023-07-08T12:47:25;43.33;;;25.57;;
34060;SDS011;20336;-33.424;-70.638;2023-07-08T12:49:52;43.17;;;25.17;;
34060;SDS011;20336;-33.424;-70.638;2023-07-08T12:52:20;47.00;;;24.67;;
34060;SDS011;20336;-33.424;-70.638;2023-07-08T12:54:47;51.27;;;28.27;;
34060;SDS011;20336;-33.424;-70.638;2023-07-08T12:57:17;44.70;;;26.57;;
34060;SDS011;20336;-33.424;-70.638;2023-07-08T12:59:45;48.20;;;27.73;;
34060;SDS011;20336;-33.424;-70.638;2023-07-08T13:02:15;44.40;;;25.93;;
34060;SDS011;20336;-33.424;-70.638;2023-07-08T13:04:44;47.70;;;25.53;;
34060;SDS011;20336;-33.424;-70.638;2023-07-08T13:07:30;43.70;;;23.03;;
34060;SDS011;20336;-33.424;-70.638;2023-07-08T13:09:59;44.97;;;23.83;;
34060;SDS011;20336;-33.424;-70.638;2023-07-08T13:12:26;49.63;;;25.57;;
34060;SDS011;20336;-33.424;-70.638;2023-07-08T13:14:54;39.97;;;23.47;;
34060;SDS011;20336;-33.424;-70.638;2023-07-08T13:17:24;38.50;;;23.00;;
34060;SDS011;20336;-33.424;-70.638;2023-07-08T13:19:51;40.83;;;22.47;;
34060;SDS011;20336;-33.424;-70.638;2023-07-08T13:22:19;46.87;;;27.17;;
34060;SDS011;20336;-33.424;-70.638;2023-07-08T13:24:47;60.53;;;32.03;;
34060;SDS011;20336;-33.424;-70.638;2023-07-08T13:27:23;66.13;;;32.53;;
34060;SDS011;20336;-33.424;-70.638;2023-07-08T13:29:51;67.77;;;36.57;;
34060;SDS011;20336;-33.424;-70.638;2023-07-08T13:32:18;63.77;;;31.83;;
34060;SDS011;20336;-33.424;-70.638;2023-07-08T13:34:48;55.20;;;32.03;;
34060;SDS011;20336;-33.424;-70.638;2023-07-08T13:37:16;95.47;;;51.70;;
34060;SDS011;20336;-33.424;-70.638;2023-07-08T13:39:47;58.27;;;32.73;;
34060;SDS011;20336;-33.424;-70.638;2023-07-08T13:42:14;58.77;;;33.47;;
34060;SDS011;20336;-33.424;-70.638;2023-07-08T13:44:42;57.50;;;31.87;;
34060;SDS011;20336;-33.424;-70.638;2023-07-08T13:50:07;52.00;;;31.33;;
34060;SDS011;20336;-33.424;-70.638;2023-07-08T13:52:38;69.37;;;37.43;;
34060;SDS011;20336;-33.424;-70.638;2023-07-08T13:55:09;65.17;;;36.83;;
34060;SDS011;20336;-33.424;-70.638;2023-07-08T13:57:38;69.83;;;39.43;;
34060;SDS011;20336;-33.424;-70.638;2023-07-08T14:00:05;80.43;;;42.20;;
34060;SDS011;20336;-33.424;-70.638;2023-07-08T14:02:34;69.90;;;37.73;;
34060;SDS011;20336;-33.424;-70.638;2023-07-08T14:05:01;77.63;;;42.70;;
34060;SDS011;20336;-33.424;-70.638;2023-07-08T14:07:32;70.50;;;39.67;;
34060;SDS011;20336;-33.424;-70.638;2023-07-08T14:09:59;68.43;;;39.83;;
34060;SDS011;20336;-33.424;-70.638;2023-07-08T14:12:26;72.60;;;39.80;;
34060;SDS011;20336;-33.424;-70.638;2023-07-08T14:14:53;69.90;;;41.53;;
34060;SDS011;20336;-33.424;-70.638;2023-07-08T14:17:23;66.70;;;37.63;;
34060;SDS011;20336;-33.424;-70.638;2023-07-08T14:19:51;63.17;;;37.90;;
34060;SDS011;20336;-33.424;-70.638;2023-07-08T14:22:24;68.37;;;38.87;;
34060;SDS011;20336;-33.424;-70.638;2023-07-08T14:24:51;52.13;;;31.70;;